createdAt,value
2018-01-24T00:00:40.633Z,1.60
2018-01-24T00:03:09.773Z,1.90
2018-01-24T00:05:38.146Z,1.57
2018-01-24T00:08:06.532Z,1.93
2018-01-24T00:10:35.104Z,1.40
2018-01-24T00:13:03.470Z,1.80
2018-01-24T00:15:31.951Z,1.70
2018-01-24T00:18:00.366Z,1.80
2018-01-24T00:20:28.878Z,1.70
2018-01-24T00:22:58.042Z,1.67
2018-01-24T00:25:26.433Z,1.67
2018-01-24T00:27:54.988Z,1.50
2018-01-24T00:30:23.330Z,1.40
2018-01-24T00:32:52.478Z,1.60
2018-01-24T00:35:20.917Z,1.63
2018-01-24T00:37:49.277Z,1.60
2018-01-24T00:40:17.681Z,1.60
2018-01-24T00:42:46.039Z,1.83
2018-01-24T00:45:14.413Z,1.73
2018-01-24T00:47:42.918Z,1.57
2018-01-24T00:50:11.276Z,1.50
2018-01-24T00:52:39.634Z,1.80
2018-01-24T00:55:08.797Z,1.73
2018-01-24T00:57:37.157Z,1.50
2018-01-24T01:00:05.191Z,1.70
2018-01-24T01:02:34.301Z,1.57
2018-01-24T01:05:02.659Z,1.90
2018-01-24T01:07:31.990Z,1.50
2018-01-24T01:10:00.685Z,1.70
2018-01-24T01:12:29.114Z,1.50
2018-01-24T01:14:58.241Z,2.00
2018-01-24T01:17:26.722Z,1.77
2018-01-24T01:19:55.100Z,1.57
2018-01-24T01:22:23.459Z,1.70
2018-01-24T01:24:52.641Z,1.77
2018-01-24T01:27:21.797Z,1.20
2018-01-24T01:29:50.162Z,1.47
2018-01-24T01:32:18.554Z,1.60
2018-01-24T01:34:46.918Z,1.50
2018-01-24T01:37:15.455Z,1.77
2018-01-24T01:39:44.608Z,1.50
2018-01-24T01:42:12.985Z,1.77
2018-01-24T01:44:41.319Z,1.43
2018-01-24T01:47:09.806Z,1.70
2018-01-24T01:49:38.154Z,1.80
2018-01-24T01:52:07.102Z,1.90
2018-01-24T01:54:35.277Z,1.60
2018-01-24T01:57:03.915Z,1.60
2018-01-24T01:59:32.872Z,1.80
2018-01-24T02:02:01.240Z,2.07
2018-01-24T02:04:29.759Z,1.80
2018-01-24T02:06:57.753Z,1.80
2018-01-24T02:09:25.924Z,2.10
2018-01-24T02:11:54.267Z,1.80
2018-01-24T02:14:23.450Z,2.03
2018-01-24T02:16:51.807Z,1.70
2018-01-24T02:19:20.291Z,1.97
2018-01-24T02:21:48.655Z,1.80
2018-01-24T02:24:16.939Z,2.20
2018-01-24T02:26:45.327Z,1.93
2018-01-24T02:29:14.309Z,1.80
2018-01-24T02:31:42.679Z,1.97
2018-01-24T02:34:11.141Z,2.10
2018-01-24T02:36:39.532Z,2.00
2018-01-24T02:39:20.516Z,2.20
2018-01-24T02:41:49.483Z,1.83
2018-01-24T02:44:18.614Z,1.87
2018-01-24T02:46:46.980Z,1.77
2018-01-24T02:49:15.332Z,1.93
2018-01-24T02:51:43.687Z,1.80
2018-01-24T02:54:12.835Z,2.10
2018-01-24T02:56:41.193Z,2.40
2018-01-24T02:59:10.284Z,1.83
2018-01-24T03:01:38.656Z,2.07
2018-01-24T03:04:07.262Z,2.30
2018-01-24T03:06:36.448Z,2.00
2018-01-24T03:09:04.314Z,2.00
2018-01-24T03:11:32.378Z,1.90
2018-01-24T03:14:00.886Z,2.17
2018-01-24T03:16:29.334Z,1.97
2018-01-24T03:18:58.000Z,2.00
2018-01-24T03:21:27.159Z,2.00
2018-01-24T03:23:55.621Z,2.10
2018-01-24T03:26:24.488Z,1.60
2018-01-24T03:28:52.847Z,1.90
2018-01-24T03:31:22.812Z,1.90
2018-01-24T03:33:51.241Z,1.93
2018-01-24T03:36:20.385Z,1.67
2018-01-24T03:38:48.951Z,1.80
2018-01-24T03:41:17.405Z,1.87
2018-01-24T03:43:45.774Z,1.60
2018-01-24T03:46:14.598Z,1.60
2018-01-24T03:48:42.942Z,1.57
2018-01-24T03:51:12.153Z,1.60
2018-01-24T03:53:40.521Z,1.70
2018-01-24T03:56:09.785Z,1.70
2018-01-24T03:58:38.927Z,1.80
2018-01-24T04:01:07.277Z,1.70
2018-01-24T04:03:35.647Z,1.63
2018-01-24T04:06:05.595Z,1.50
2018-01-24T04:08:33.951Z,1.47
2018-01-24T04:11:03.079Z,1.50
2018-01-24T04:13:31.586Z,1.43
2018-01-24T04:15:59.951Z,1.47
2018-01-24T04:18:28.493Z,1.70
2018-01-24T04:20:57.694Z,1.50
2018-01-24T04:23:26.854Z,1.50
2018-01-24T04:25:55.213Z,1.60
2018-01-24T04:28:23.577Z,1.40
2018-01-24T04:30:52.029Z,1.70
2018-01-24T04:33:21.153Z,1.50
2018-01-24T04:35:49.592Z,1.40
2018-01-24T04:38:19.055Z,1.33
2018-01-24T04:40:47.575Z,1.40
2018-01-24T04:43:16.730Z,1.40
2018-01-24T04:45:44.949Z,1.50
2018-01-24T04:48:13.310Z,1.40
2018-01-24T04:50:41.604Z,1.50
2018-01-24T04:53:09.822Z,1.50
2018-01-24T04:55:38.300Z,1.53
2018-01-24T04:58:06.538Z,1.50
2018-01-24T05:00:36.206Z,1.80
2018-01-24T05:03:04.232Z,1.60
2018-01-24T05:05:32.603Z,1.70
2018-01-24T05:08:00.796Z,1.67
2018-01-24T05:10:28.974Z,1.50
2018-01-24T05:12:57.149Z,1.60
2018-01-24T05:15:25.447Z,1.60
2018-01-24T05:17:53.669Z,1.70
2018-01-24T05:20:33.580Z,1.50
2018-01-24T05:23:01.743Z,1.47
2018-01-24T05:25:30.202Z,1.60
2018-01-24T05:27:58.651Z,1.80
2018-01-24T05:30:27.898Z,1.60
2018-01-24T05:32:56.423Z,2.00
2018-01-24T05:35:24.921Z,1.80
2018-01-24T05:37:53.578Z,1.50
2018-01-24T05:40:22.114Z,1.40
2018-01-24T05:42:50.630Z,1.50
2018-01-24T05:45:19.664Z,1.60
2018-01-24T05:47:48.916Z,1.60
2018-01-24T05:50:17.233Z,1.63
2018-01-24T05:52:45.604Z,1.50
2018-01-24T05:55:14.175Z,1.50
2018-01-24T05:57:43.461Z,1.40
2018-01-24T06:00:11.962Z,1.57
2018-01-24T06:02:41.117Z,1.37
2018-01-24T06:05:09.481Z,1.27
2018-01-24T06:07:37.982Z,1.50
2018-01-24T06:10:06.429Z,1.30
2018-01-24T06:12:35.187Z,1.40
2018-01-24T06:15:04.344Z,1.70
2018-01-24T06:17:32.694Z,1.50
2018-01-24T06:20:01.127Z,1.40
2018-01-24T06:22:30.397Z,1.30
2018-01-24T06:24:58.780Z,1.67
2018-01-24T06:27:27.188Z,1.60
2018-01-24T06:29:56.210Z,1.57
2018-01-24T06:32:24.746Z,1.70
2018-01-24T06:34:53.900Z,1.37
2018-01-24T06:37:22.353Z,1.37
2018-01-24T06:39:50.712Z,1.47
2018-01-24T06:42:19.956Z,1.20
2018-01-24T06:44:48.501Z,1.30
2018-01-24T06:47:17.112Z,1.60
2018-01-24T06:49:45.791Z,1.40
2018-01-24T06:52:14.180Z,1.30
2018-01-24T06:54:42.556Z,1.60
2018-01-24T06:57:10.944Z,1.40
2018-01-24T06:59:39.323Z,1.47
2018-01-24T07:02:07.530Z,1.23
2018-01-24T07:04:36.090Z,1.60
2018-01-24T07:07:04.481Z,1.50
2018-01-24T07:09:32.830Z,1.40
2018-01-24T07:12:12.555Z,1.60
2018-01-24T07:14:45.190Z,1.60
2018-01-24T07:17:14.543Z,1.37
2018-01-24T07:19:42.920Z,1.50
2018-01-24T07:22:11.305Z,1.43
2018-01-24T07:24:39.696Z,1.47
2018-01-24T07:27:08.151Z,1.47
2018-01-24T07:29:36.492Z,1.50
2018-01-24T07:32:05.633Z,1.20
2018-01-24T07:34:33.993Z,1.93
2018-01-24T07:37:02.346Z,1.70
2018-01-24T07:39:32.149Z,1.73
2018-01-24T07:42:00.588Z,1.47
2018-01-24T07:44:28.936Z,1.70
2018-01-24T07:46:58.061Z,1.70
2018-01-24T07:49:26.433Z,1.87
2018-01-24T07:51:54.775Z,1.80
2018-01-24T07:54:23.914Z,1.70
2018-01-24T07:56:52.286Z,1.50
2018-01-24T07:59:20.469Z,1.43
2018-01-24T08:01:48.743Z,2.03
2018-01-24T08:04:16.913Z,1.30
2018-01-24T08:06:45.086Z,1.50
2018-01-24T08:09:16.534Z,1.70
2018-01-24T08:11:45.069Z,1.50
2018-01-24T08:14:14.355Z,1.47
2018-01-24T08:16:42.731Z,2.10
2018-01-24T08:19:11.099Z,1.80
2018-01-24T08:21:39.456Z,1.60
2018-01-24T08:24:08.424Z,1.70
2018-01-24T08:26:36.775Z,1.50
2018-01-24T08:29:06.025Z,1.50
2018-01-24T08:31:34.362Z,1.60
2018-01-24T08:34:02.858Z,1.73
2018-01-24T08:36:31.229Z,1.90
2018-01-24T08:38:59.793Z,1.80
2018-01-24T08:41:29.141Z,1.60
2018-01-24T08:43:58.164Z,1.90
2018-01-24T08:46:26.537Z,1.90
2018-01-24T08:48:54.895Z,1.90
2018-01-24T08:51:23.253Z,1.90
2018-01-24T08:53:51.774Z,2.10
2018-01-24T08:56:20.345Z,3.03
2018-01-24T08:58:48.714Z,2.10
2018-01-24T09:01:17.293Z,2.20
2018-01-24T09:03:45.698Z,2.07
2018-01-24T09:06:14.081Z,2.50
2018-01-24T09:08:42.109Z,2.07
2018-01-24T09:11:11.434Z,1.90
2018-01-24T09:13:40.560Z,2.00
2018-01-24T09:16:09.670Z,1.73
2018-01-24T09:18:38.134Z,2.20
2018-01-24T09:21:07.851Z,2.00
2018-01-24T09:23:37.046Z,2.53
2018-01-24T09:26:06.528Z,2.00
2018-01-24T09:28:34.891Z,2.30
2018-01-24T09:31:03.370Z,2.50
2018-01-24T09:33:31.830Z,2.60
2018-01-24T09:36:00.302Z,2.50
2018-01-24T09:38:28.674Z,2.10
2018-01-24T09:40:57.034Z,2.50
2018-01-24T09:43:25.400Z,2.10
2018-01-24T09:45:54.531Z,2.00
2018-01-24T09:48:22.922Z,2.27
2018-01-24T09:50:51.312Z,2.43
2018-01-24T09:53:19.728Z,1.80
2018-01-24T09:55:48.874Z,1.87
2018-01-24T09:58:17.209Z,2.23
2018-01-24T10:00:45.665Z,1.77
2018-01-24T10:03:14.011Z,1.77
2018-01-24T10:05:42.375Z,2.00
2018-01-24T10:08:10.718Z,2.27
2018-01-24T10:10:39.869Z,1.80
2018-01-24T10:13:08.222Z,2.20
2018-01-24T10:15:36.553Z,1.90
2018-01-24T10:18:06.301Z,2.00
2018-01-24T10:20:34.663Z,1.80
2018-01-24T10:23:03.009Z,1.87
2018-01-24T10:25:31.832Z,1.80
2018-01-24T10:28:00.185Z,1.90
2018-01-24T10:30:28.558Z,1.87
2018-01-24T10:32:57.750Z,1.90
2018-01-24T10:35:26.260Z,1.80
2018-01-24T10:37:54.807Z,1.70
2018-01-24T10:40:23.156Z,1.80
2018-01-24T10:42:51.529Z,1.77
2018-01-24T10:45:19.876Z,1.70
2018-01-24T10:47:48.241Z,1.60
2018-01-24T10:50:17.497Z,1.80
2018-01-24T10:52:45.875Z,1.60
2018-01-24T10:55:14.232Z,1.60
2018-01-24T10:57:43.001Z,1.60
2018-01-24T11:00:10.740Z,2.00
2018-01-24T11:02:39.230Z,1.93
2018-01-24T11:05:08.369Z,1.60
2018-01-24T11:07:36.736Z,1.77
2018-01-24T11:10:05.152Z,2.07
2018-01-24T11:12:33.763Z,1.70
2018-01-24T11:15:02.973Z,2.47
2018-01-24T11:17:31.340Z,1.50
2018-01-24T11:20:00.491Z,1.57
2018-01-24T11:22:28.847Z,1.80
2018-01-24T11:24:57.254Z,1.90
2018-01-24T11:27:25.798Z,2.13
2018-01-24T11:29:54.284Z,1.70
2018-01-24T11:32:22.677Z,1.70
2018-01-24T11:34:51.059Z,2.00
2018-01-24T11:37:19.426Z,1.90
2018-01-24T11:39:47.809Z,1.60
2018-01-24T11:42:16.242Z,2.17
2018-01-24T11:44:45.370Z,1.80
2018-01-24T11:47:13.758Z,1.53
2018-01-24T11:49:42.278Z,1.50
2018-01-24T11:52:11.456Z,2.00
2018-01-24T11:54:39.829Z,1.83
2018-01-24T11:57:08.207Z,1.87
2018-01-24T11:59:36.570Z,1.70
2018-01-24T12:02:04.940Z,1.60
2018-01-24T12:04:33.314Z,1.50
2018-01-24T12:07:01.679Z,1.60
2018-01-24T12:09:30.203Z,1.70
2018-01-24T12:11:58.591Z,1.83
2018-01-24T12:14:28.481Z,1.70
2018-01-24T12:16:56.845Z,2.07
2018-01-24T12:19:25.396Z,1.73
2018-01-24T12:21:54.801Z,1.53
2018-01-24T12:24:23.964Z,1.37
2018-01-24T12:26:52.429Z,1.53
2018-01-24T12:29:20.893Z,1.60
2018-01-24T12:31:49.270Z,1.60
2018-01-24T12:34:17.649Z,1.40
2018-01-24T12:36:46.641Z,1.63
2018-01-24T12:39:15.003Z,2.07
2018-01-24T12:41:44.002Z,1.97
2018-01-24T12:44:12.574Z,2.37
2018-01-24T12:46:40.955Z,4.10
2018-01-24T12:49:09.353Z,6.23
2018-01-24T12:51:37.921Z,7.80
2018-01-24T12:54:06.388Z,8.33
2018-01-24T12:56:34.887Z,2.90
2018-01-24T12:59:04.192Z,1.80
2018-01-24T13:01:32.553Z,1.50
2018-01-24T13:04:00.950Z,1.47
2018-01-24T13:06:30.928Z,1.30
2018-01-24T13:09:00.045Z,1.27
2018-01-24T13:11:28.438Z,1.23
2018-01-24T13:13:56.805Z,1.50
2018-01-24T13:16:25.198Z,1.47
2018-01-24T13:18:53.567Z,1.60
2018-01-24T13:21:21.939Z,1.80
2018-01-24T13:23:50.310Z,1.50
2018-01-24T13:26:18.675Z,1.50
2018-01-24T13:28:47.050Z,1.20
2018-01-24T13:31:15.423Z,1.30
2018-01-24T13:33:44.561Z,1.43
2018-01-24T13:36:12.935Z,1.50
2018-01-24T13:38:41.304Z,1.80
2018-01-24T13:41:09.645Z,1.30
2018-01-24T13:43:38.772Z,1.50
2018-01-24T13:46:07.120Z,1.50
2018-01-24T13:48:36.914Z,1.40
2018-01-24T13:51:05.246Z,1.50
2018-01-24T13:53:33.647Z,1.50
2018-01-24T13:56:02.008Z,1.67
2018-01-24T13:58:30.573Z,1.30
2018-01-24T14:00:58.970Z,1.60
2018-01-24T14:03:27.314Z,1.50
2018-01-24T14:05:55.686Z,1.50
2018-01-24T14:08:24.915Z,1.73
2018-01-24T14:10:53.297Z,1.60
2018-01-24T14:13:21.750Z,1.40
2018-01-24T14:15:50.300Z,1.50
2018-01-24T14:18:19.246Z,1.40
2018-01-24T14:20:47.602Z,1.50
2018-01-24T14:23:16.669Z,1.53
2018-01-24T14:25:45.122Z,1.50
2018-01-24T14:28:13.574Z,1.70
2018-01-24T14:30:42.716Z,1.60
2018-01-24T14:33:11.096Z,1.80
2018-01-24T14:35:39.455Z,1.80
2018-01-24T14:38:08.021Z,1.63
2018-01-24T14:40:36.612Z,1.53
2018-01-24T14:43:04.991Z,1.60
2018-01-24T14:45:33.459Z,1.70
2018-01-24T14:48:01.959Z,1.40
2018-01-24T14:50:30.334Z,1.60
2018-01-24T14:52:58.790Z,1.80
2018-01-24T14:55:27.430Z,1.83
2018-01-24T14:57:55.866Z,1.80
2018-01-24T15:00:24.253Z,2.07
2018-01-24T15:02:52.660Z,1.60
2018-01-24T15:05:21.146Z,1.80
2018-01-24T15:07:50.287Z,1.50
2018-01-24T15:10:18.662Z,1.70
2018-01-24T15:12:47.173Z,1.47
2018-01-24T15:15:15.555Z,1.73
2018-01-24T15:17:43.925Z,1.77
2018-01-24T15:20:12.440Z,1.60
2018-01-24T15:22:41.609Z,1.90
2018-01-24T15:25:10.347Z,1.60
2018-01-24T15:27:38.772Z,1.60
2018-01-24T15:30:07.290Z,1.60
2018-01-24T15:32:36.767Z,1.60
2018-01-24T15:35:05.201Z,1.87
2018-01-24T15:37:33.559Z,1.73
2018-01-24T15:40:01.942Z,1.50
2018-01-24T15:42:30.314Z,1.53
2018-01-24T15:44:58.791Z,1.40
2018-01-24T15:47:27.944Z,1.80
2018-01-24T15:49:56.291Z,1.70
2018-01-24T15:52:24.658Z,1.70
2018-01-24T15:54:53.007Z,1.47
2018-01-24T15:57:21.378Z,1.50
2018-01-24T15:59:49.863Z,1.40
2018-01-24T16:02:19.041Z,1.40
2018-01-24T16:04:47.418Z,1.50
2018-01-24T16:07:17.466Z,1.87
2018-01-24T16:09:46.870Z,1.60
2018-01-24T16:12:15.642Z,1.70
2018-01-24T16:14:44.330Z,1.50
2018-01-24T16:17:14.433Z,1.77
2018-01-24T16:19:42.972Z,1.60
2018-01-24T16:22:11.336Z,1.50
2018-01-24T16:24:39.889Z,1.70
2018-01-24T16:27:09.239Z,1.70
2018-01-24T16:29:37.814Z,1.60
2018-01-24T16:32:06.266Z,1.57
2018-01-24T16:34:35.464Z,1.53
2018-01-24T16:37:04.434Z,1.70
2018-01-24T16:39:32.939Z,1.57
2018-01-24T16:42:01.420Z,1.80
2018-01-24T16:44:29.805Z,1.93
2018-01-24T16:46:58.483Z,2.97
2018-01-24T16:49:27.769Z,1.67
2018-01-24T16:51:57.084Z,1.97
2018-01-24T16:54:26.270Z,1.87
2018-01-24T16:56:55.456Z,2.00
2018-01-24T16:59:24.518Z,1.60
2018-01-24T17:01:53.068Z,1.80
2018-01-24T17:04:21.580Z,1.90
2018-01-24T17:06:50.062Z,1.90
2018-01-24T17:09:18.451Z,2.20
2018-01-24T17:11:46.956Z,2.30
2018-01-24T17:14:16.099Z,1.70
2018-01-24T17:16:44.496Z,1.70
2018-01-24T17:19:12.859Z,1.67
2018-01-24T17:21:41.409Z,1.87
2018-01-24T17:24:09.788Z,1.80
2018-01-24T17:26:38.274Z,1.90
2018-01-24T17:29:06.638Z,1.80
2018-01-24T17:31:35.057Z,2.10
2018-01-24T17:34:03.474Z,2.77
2018-01-24T17:36:31.975Z,1.77
2018-01-24T17:39:00.507Z,1.90
2018-01-24T17:41:29.075Z,2.30
2018-01-24T17:43:57.627Z,1.80
2018-01-24T17:46:26.524Z,2.40
2018-01-24T17:48:54.986Z,1.90
2018-01-24T17:51:24.139Z,2.20
2018-01-24T17:53:52.706Z,2.20
2018-01-24T17:56:21.260Z,2.23
2018-01-24T17:58:50.429Z,2.20
2018-01-24T18:01:18.668Z,1.97
2018-01-24T18:03:47.024Z,2.20
2018-01-24T18:06:15.390Z,2.23
2018-01-24T18:08:43.849Z,2.40
2018-01-24T18:11:13.152Z,2.30
2018-01-24T18:13:42.285Z,2.67
2018-01-24T18:16:10.847Z,2.53
2018-01-24T18:18:39.209Z,2.17
2018-01-24T18:21:08.421Z,2.13
2018-01-24T18:23:37.549Z,2.23
2018-01-24T18:26:06.655Z,2.20
2018-01-24T18:28:35.043Z,2.40
2018-01-24T18:31:03.458Z,2.23
2018-01-24T18:33:32.845Z,2.10
2018-01-24T18:36:03.425Z,2.00
2018-01-24T18:38:31.796Z,2.20
2018-01-24T18:41:00.181Z,2.00
2018-01-24T18:43:28.569Z,1.97
2018-01-24T18:45:56.947Z,2.03
2018-01-24T18:48:25.321Z,2.07
2018-01-24T18:50:54.648Z,2.30
2018-01-24T18:53:23.169Z,2.43
2018-01-24T18:55:51.752Z,2.50
2018-01-24T18:58:20.120Z,2.47
2018-01-24T19:00:49.254Z,2.57
2018-01-24T19:03:17.633Z,2.40
2018-01-24T19:05:46.020Z,2.50
2018-01-24T19:08:14.538Z,3.30
2018-01-24T19:10:44.604Z,3.13
2018-01-24T19:13:13.166Z,2.30
2018-01-24T19:15:41.635Z,2.27
2018-01-24T19:18:10.882Z,2.43
2018-01-24T19:20:39.247Z,2.20
2018-01-24T19:23:07.644Z,2.40
2018-01-24T19:25:36.029Z,2.30
2018-01-24T19:28:04.246Z,2.50
2018-01-24T19:30:32.744Z,2.90
2018-01-24T19:33:01.387Z,2.60
2018-01-24T19:35:29.880Z,2.50
2018-01-24T19:37:59.173Z,2.17
2018-01-24T19:40:28.319Z,2.50
2018-01-24T19:42:56.763Z,2.30
2018-01-24T19:45:25.921Z,2.27
2018-01-24T19:47:54.487Z,2.73
2018-01-24T19:50:22.964Z,2.50
2018-01-24T19:52:51.541Z,2.30
2018-01-24T19:55:20.074Z,2.70
2018-01-24T19:57:49.228Z,2.30
2018-01-24T20:00:17.813Z,2.37
2018-01-24T20:02:46.167Z,2.30
2018-01-24T20:05:14.339Z,2.50
2018-01-24T20:07:42.710Z,2.40
2018-01-24T20:10:11.054Z,2.30
2018-01-24T20:12:40.200Z,2.63
2018-01-24T20:15:09.307Z,2.40
2018-01-24T20:17:38.264Z,2.30
2018-01-24T20:20:06.769Z,2.47
2018-01-24T20:22:35.146Z,2.30
2018-01-24T20:25:03.533Z,2.70
2018-01-24T20:27:31.957Z,2.40
2018-01-24T20:30:01.117Z,2.70
2018-01-24T20:32:29.928Z,2.63
2018-01-24T20:34:59.344Z,2.60
2018-01-24T20:37:28.528Z,2.77
2018-01-24T20:39:57.951Z,2.50
2018-01-24T20:42:28.128Z,2.67
2018-01-24T20:44:56.737Z,2.70
2018-01-24T20:47:26.400Z,3.00
2018-01-24T20:49:54.816Z,2.60
2018-01-24T20:52:23.225Z,2.70
2018-01-24T20:54:52.061Z,2.60
2018-01-24T20:57:20.599Z,2.70
2018-01-24T20:59:49.861Z,2.67
2018-01-24T21:02:18.371Z,2.77
2018-01-24T21:04:47.610Z,2.63
2018-01-24T21:07:17.115Z,2.77
2018-01-24T21:09:45.568Z,2.97
2018-01-24T21:12:13.944Z,2.90
2018-01-24T21:14:43.091Z,2.80
2018-01-24T21:17:11.476Z,2.60
2018-01-24T21:19:40.663Z,2.70
2018-01-24T21:22:09.113Z,2.33
2018-01-24T21:24:37.476Z,2.60
2018-01-24T21:27:05.977Z,2.83
2018-01-24T21:29:52.414Z,2.70
2018-01-24T21:32:32.864Z,2.57
2018-01-24T21:35:12.495Z,2.70
2018-01-24T21:37:41.031Z,2.47
2018-01-24T21:40:09.425Z,2.33
2018-01-24T21:42:37.799Z,2.53
2018-01-24T21:45:06.366Z,2.70
2018-01-24T21:47:35.538Z,2.70
2018-01-24T21:50:04.005Z,2.63
2018-01-24T21:52:33.253Z,2.83
2018-01-24T21:55:01.726Z,2.53
2018-01-24T21:57:30.797Z,2.60
2018-01-24T21:59:59.496Z,2.47
2018-01-24T22:02:28.666Z,2.63
2018-01-24T22:04:58.574Z,2.30
2018-01-24T22:07:26.938Z,2.33
2018-01-24T22:09:55.441Z,2.60
2018-01-24T22:12:23.812Z,2.43
2018-01-24T22:14:53.111Z,2.47
2018-01-24T22:17:21.595Z,2.30
2018-01-24T22:19:49.984Z,2.60
2018-01-24T22:22:18.540Z,2.60
2018-01-24T22:24:47.041Z,2.63
2018-01-24T22:27:15.429Z,2.43
2018-01-24T22:29:43.804Z,2.80
2018-01-24T22:32:12.220Z,2.60
2018-01-24T22:34:40.619Z,2.70
2018-01-24T22:37:08.982Z,2.30
2018-01-24T22:39:37.162Z,2.30
2018-01-24T22:42:05.555Z,2.53
2018-01-24T22:44:33.746Z,2.23
2018-01-24T22:47:02.807Z,2.37
2018-01-24T22:49:31.254Z,2.40
2018-01-24T22:52:00.416Z,2.50
2018-01-24T22:54:29.085Z,2.57
2018-01-24T22:56:57.691Z,2.37
2018-01-24T22:59:26.215Z,2.60
2018-01-24T23:01:54.656Z,2.83
2018-01-24T23:04:23.148Z,2.80
2018-01-24T23:06:51.519Z,2.63
2018-01-24T23:09:20.023Z,2.53
2018-01-24T23:11:49.130Z,2.43
2018-01-24T23:14:17.497Z,2.83
2018-01-24T23:16:45.895Z,2.60
2018-01-24T23:19:14.252Z,2.60
2018-01-24T23:21:43.384Z,2.80
2018-01-24T23:24:11.769Z,2.63
2018-01-24T23:26:40.130Z,2.60
2018-01-24T23:29:08.484Z,2.40
2018-01-24T23:31:36.885Z,2.30
2018-01-24T23:34:05.275Z,2.50
2018-01-24T23:36:33.652Z,2.43
2018-01-24T23:39:02.026Z,2.87
2018-01-24T23:41:30.585Z,2.53
2018-01-24T23:43:59.747Z,2.40
2018-01-24T23:46:29.592Z,2.67
2018-01-24T23:48:57.991Z,2.43
2018-01-24T23:51:26.015Z,2.30
2018-01-24T23:53:54.479Z,2.43
2018-01-24T23:56:22.777Z,2.83
2018-01-24T23:58:52.072Z,2.37
